Time;durP1;ratioP1;P1;durP2;ratioP2;P2;SDS_P1;SDS_P2;PMS_P1;PMS_P2;Temp;Humidity;BMP_temperature;BMP_pressure;BME280_temperature;BME280_humidity;BME280_pressure;Samples;Min_cycle;Max_cycle;Signal;HPM_P1;HPM_P2
2021/12/02 00:02:07;;;;;;;16.20;3.10;;;4.80;99.90;;;;;;5096277;28;20027;-70
2021/12/02 00:04:34;;;;;;;12.70;3.00;;;4.90;99.90;;;;;;5096008;28;20012;-71
2021/12/02 00:07:00;;;;;;;13.23;2.88;;;4.90;99.90;;;;;;5096253;28;20061;-70
2021/12/02 00:09:26;;;;;;;17.75;2.47;;;4.90;99.90;;;;;;5095865;28;20028;-71
2021/12/02 00:11:51;;;;;;;15.57;2.85;;;4.90;99.90;;;;;;5096160;28;20162;-71
2021/12/02 00:14:23;;;;;;;21.42;3.58;;;4.90;99.90;;;;;;5096407;28;20028;-70
2021/12/02 00:17:08;;;;;;;13.20;2.67;;;4.80;99.90;;;;;;5096411;28;20024;-70
2021/12/02 00:22:23;;;;;;;13.90;2.80;;;4.80;99.90;;;;;;5095467;28;20047;-71
2021/12/02 00:24:53;;;;;;;8.68;2.38;;;4.70;99.90;;;;;;5096803;28;20032;-71
2021/12/02 00:27:20;;;;;;;9.05;2.20;;;4.70;99.90;;;;;;5095853;28;20020;-70
2021/12/02 00:29:47;;;;;;;14.52;3.00;;;4.60;99.90;;;;;;5078540;28;20020;-71
2021/12/02 00:32:12;;;;;;;15.10;2.85;;;4.70;99.90;;;;;;5078427;28;20031;-71
2021/12/02 00:34:45;;;;;;;14.88;2.78;;;4.70;99.90;;;;;;5096034;28;20035;-71
2021/12/02 00:37:11;;;;;;;12.07;2.50;;;4.70;99.90;;;;;;5095728;28;20024;-70
2021/12/02 00:39:38;;;;;;;12.20;3.33;;;4.70;99.90;;;;;;5095665;28;20465;-71
2021/12/02 00:42:04;;;;;;;15.35;2.72;;;4.70;99.90;;;;;;5096701;28;20028;-71
2021/12/02 00:44:32;;;;;;;21.27;3.03;;;4.80;99.90;;;;;;5096032;28;20024;-71
2021/12/02 00:47:00;;;;;;;11.93;2.92;;;4.70;99.90;;;;;;5095525;28;20020;-71
2021/12/02 00:49:25;;;;;;;13.13;3.50;;;4.70;99.90;;;;;;5095102;28;20028;-71
2021/12/02 00:51:54;;;;;;;13.27;3.63;;;4.70;99.90;;;;;;5079030;28;20036;-70
2021/12/02 00:54:23;;;;;;;15.80;3.85;;;4.70;99.90;;;;;;5096336;28;20024;-70
2021/12/02 00:56:49;;;;;;;19.42;3.22;;;4.80;99.90;;;;;;5096433;28;20028;-70
2021/12/02 00:59:15;;;;;;;18.83;3.15;;;4.80;99.90;;;;;;5078630;28;20039;-71
2021/12/02 01:01:41;;;;;;;21.42;4.03;;;4.70;99.90;;;;;;5077844;28;20380;-70
2021/12/02 01:04:11;;;;;;;15.60;3.63;;;4.70;99.90;;;;;;5096590;28;20024;-70
2021/12/02 01:06:38;;;;;;;14.88;2.75;;;4.70;99.90;;;;;;5078453;28;20020;-71
2021/12/02 01:09:06;;;;;;;16.10;2.97;;;4.70;99.90;;;;;;5095037;28;20020;-70
2021/12/02 01:11:33;;;;;;;15.23;3.17;;;4.70;99.90;;;;;;5078233;28;20055;-71
2021/12/02 01:13:58;;;;;;;9.43;2.88;;;4.70;99.90;;;;;;5096414;28;20027;-71
2021/12/02 01:16:25;;;;;;;19.52;3.28;;;4.70;99.90;;;;;;5096385;28;20020;-70
2021/12/02 01:18:51;;;;;;;14.30;3.20;;;4.70;99.90;;;;;;5096344;28;20031;-71
2021/12/02 01:21:20;;;;;;;15.50;2.92;;;4.70;99.90;;;;;;5077652;28;20103;-70
2021/12/02 01:23:50;;;;;;;12.75;2.75;;;4.60;99.90;;;;;;5077579;28;20131;-69
2021/12/02 01:26:17;;;;;;;15.70;3.25;;;4.60;99.90;;;;;;5096209;28;20027;-70
2021/12/02 01:28:44;;;;;;;18.17;3.22;;;4.60;99.90;;;;;;5077546;28;20026;-70
2021/12/02 01:31:11;;;;;;;16.80;3.10;;;4.60;99.90;;;;;;5094326;28;20032;-70
2021/12/02 01:33:39;;;;;;;15.57;3.83;;;4.60;99.90;;;;;;5094232;28;20408;-70
2021/12/02 01:36:06;;;;;;;14.98;3.05;;;4.60;99.90;;;;;;5094184;28;20465;-71
2021/12/02 01:38:33;;;;;;;21.23;3.08;;;4.60;99.90;;;;;;5094479;28;20384;-70
2021/12/02 01:41:00;;;;;;;13.50;3.13;;;4.60;99.90;;;;;;5095888;28;20024;-70
2021/12/02 01:43:48;;;;;;;14.50;3.72;;;4.60;99.90;;;;;;5095211;28;20028;-71
2021/12/02 01:46:20;;;;;;;18.50;3.15;;;4.60;99.90;;;;;;5093941;28;20031;-71
2021/12/02 01:48:58;;;;;;;16.52;3.28;;;4.60;99.90;;;;;;5095782;28;20093;-70
2021/12/02 01:51:26;;;;;;;11.57;2.92;;;4.60;99.90;;;;;;5094342;28;20157;-70
2021/12/02 01:54:13;;;;;;;14.57;3.85;;;4.60;99.90;;;;;;5093845;28;20043;-71
2021/12/02 01:57:05;;;;;;;21.38;3.45;;;4.50;99.90;;;;;;5095579;28;20107;-71
2021/12/02 01:59:34;;;;;;;15.63;3.78;;;4.50;99.90;;;;;;5095534;28;20475;-70
2021/12/02 02:02:03;;;;;;;14.95;3.20;;;4.50;99.90;;;;;;5077581;28;20114;-71
2021/12/02 02:04:29;;;;;;;19.83;3.15;;;4.50;99.90;;;;;;5094884;28;20406;-71
2021/12/02 02:06:57;;;;;;;19.70;3.30;;;4.40;99.90;;;;;;5093105;28;20016;-71
2021/12/02 02:09:25;;;;;;;14.48;3.03;;;4.40;99.90;;;;;;5093543;28;20020;-71
2021/12/02 02:11:51;;;;;;;18.75;3.40;;;4.40;99.90;;;;;;5094735;28;20020;-71
2021/12/02 02:14:17;;;;;;;20.63;3.33;;;4.30;99.90;;;;;;5076967;28;20461;-71
2021/12/02 02:16:43;;;;;;;14.80;3.58;;;4.30;99.90;;;;;;5095206;28;20023;-71
2021/12/02 02:19:12;;;;;;;14.95;2.78;;;4.30;99.90;;;;;;5095175;28;20093;-70
2021/12/02 02:21:37;;;;;;;16.52;3.03;;;4.30;99.90;;;;;;5093399;28;20077;-71
2021/12/02 02:24:05;;;;;;;14.60;3.05;;;4.30;99.90;;;;;;5093260;28;20020;-71
2021/12/02 02:26:35;;;;;;;16.05;3.55;;;4.40;99.90;;;;;;5076446;28;20020;-70
2021/12/02 02:29:02;;;;;;;18.67;3.47;;;4.40;99.90;;;;;;5094993;28;20043;-71
2021/12/02 02:31:29;;;;;;;22.27;3.40;;;4.40;99.90;;;;;;5094688;28;20461;-71
2021/12/02 02:33:55;;;;;;;16.75;3.00;;;4.40;99.90;;;;;;5093782;28;20380;-70
2021/12/02 02:36:24;;;;;;;13.13;3.00;;;4.50;99.90;;;;;;5094886;28;20028;-70
2021/12/02 02:38:58;;;;;;;22.95;3.22;;;4.50;99.90;;;;;;5093705;28;20036;-70
2021/12/02 02:41:27;;;;;;;19.33;2.70;;;4.50;99.90;;;;;;5093428;28;20097;-71
2021/12/02 02:43:57;;;;;;;14.65;3.10;;;4.50;99.90;;;;;;5094682;28;20031;-71
2021/12/02 02:46:27;;;;;;;10.90;2.95;;;4.50;99.90;;;;;;5093705;28;20059;-71
2021/12/02 02:48:53;;;;;;;13.05;3.08;;;4.50;99.90;;;;;;5075957;28;20016;-70
2021/12/02 02:51:19;;;;;;;13.50;3.00;;;4.50;99.90;;;;;;5076072;28;20024;-71
2021/12/02 02:53:51;;;;;;;16.40;3.40;;;4.50;99.90;;;;;;5075932;28;20362;-71
2021/12/02 02:56:18;;;;;;;17.98;3.38;;;4.50;99.90;;;;;;5092766;28;20153;-71
2021/12/02 03:01:36;;;;;;;17.08;3.55;;;4.50;99.90;;;;;;5092776;28;20036;-71
2021/12/02 03:04:14;;;;;;;12.90;3.00;;;4.50;99.90;;;;;;5076488;28;20384;-71
2021/12/02 03:06:49;;;;;;;13.55;3.25;;;4.50;99.90;;;;;;5094107;28;20024;-71
2021/12/02 03:09:25;;;;;;;16.50;3.20;;;4.50;99.90;;;;;;5076946;28;20020;-71
2021/12/02 03:11:56;;;;;;;20.92;2.80;;;4.40;99.90;;;;;;5092994;28;20031;-71
2021/12/02 03:14:35;;;;;;;14.32;3.05;;;4.50;99.90;;;;;;5094018;28;20072;-71
2021/12/02 03:17:01;;;;;;;17.50;3.38;;;4.50;99.90;;;;;;5093158;28;20023;-70
2021/12/02 03:19:29;;;;;;;18.98;3.13;;;4.50;99.90;;;;;;5092482;28;20036;-71
2021/12/02 03:21:55;;;;;;;15.80;2.75;;;4.40;99.90;;;;;;5092450;28;20137;-71
2021/12/02 03:24:21;;;;;;;23.67;3.75;;;4.50;99.90;;;;;;5092378;28;20111;-70
2021/12/02 03:26:48;;;;;;;20.30;3.00;;;4.50;99.90;;;;;;5093909;28;20486;-71
2021/12/02 03:29:14;;;;;;;9.27;3.20;;;4.50;99.90;;;;;;5093005;28;20518;-70
2021/12/02 03:31:40;;;;;;;13.27;2.78;;;4.50;99.90;;;;;;5093546;28;20020;-70
2021/12/02 03:34:07;;;;;;;16.95;2.75;;;4.50;99.90;;;;;;5093547;28;20544;-70
2021/12/02 03:36:33;;;;;;;17.58;2.78;;;4.40;99.90;;;;;;5094074;28;20408;-71
2021/12/02 03:38:59;;;;;;;10.65;2.97;;;4.40;99.90;;;;;;5092221;28;20028;-71
2021/12/02 03:41:25;;;;;;;11.15;2.85;;;4.40;99.90;;;;;;5092239;28;20118;-70
2021/12/02 03:43:52;;;;;;;11.25;2.72;;;4.30;99.90;;;;;;5093649;28;20120;-71
2021/12/02 03:46:21;;;;;;;15.15;2.58;;;4.30;99.90;;;;;;5093723;28;20465;-71
2021/12/02 03:48:47;;;;;;;10.50;2.22;;;4.30;99.90;;;;;;5075808;28;20024;-71
2021/12/02 03:51:13;;;;;;;12.07;2.42;;;4.20;99.90;;;;;;5093920;28;20070;-71
2021/12/02 03:53:39;;;;;;;12.20;2.50;;;4.20;99.90;;;;;;5075260;28;20035;-71
2021/12/02 03:56:06;;;;;;;7.65;2.00;;;4.20;99.90;;;;;;5075238;28;20031;-71
2021/12/02 03:58:33;;;;;;;6.97;1.52;;;4.10;99.90;;;;;;5075151;28;20084;-71
2021/12/02 04:00:59;;;;;;;10.02;1.77;;;4.10;99.90;;;;;;5092038;28;20122;-70
2021/12/02 04:03:24;;;;;;;12.75;2.08;;;4.10;99.90;;;;;;5092332;28;20512;-69
2021/12/02 04:05:50;;;;;;;8.35;1.60;;;3.90;99.90;;;;;;5092006;28;20062;-70
2021/12/02 04:08:16;;;;;;;12.10;2.15;;;3.80;99.90;;;;;;5092796;28;20028;-70
2021/12/02 04:10:43;;;;;;;13.45;2.55;;;3.90;99.90;;;;;;5092310;28;20016;-70
2021/12/02 04:15:53;;;;;;;11.45;2.33;;;3.80;99.90;;;;;;5112282;27;20104;-70
2021/12/02 04:18:19;;;;;;;9.73;2.17;;;3.90;99.90;;;;;;5110339;28;20430;-70
2021/12/02 04:20:44;;;;;;;8.02;1.80;;;3.80;99.90;;;;;;5093147;28;20077;-70
2021/12/02 04:23:10;;;;;;;10.82;1.83;;;3.80;99.90;;;;;;5110779;28;20063;-71
2021/12/02 04:25:36;;;;;;;8.82;1.63;;;3.80;99.90;;;;;;5111855;28;20036;-70
2021/12/02 04:28:01;;;;;;;5.72;1.60;;;3.80;99.90;;;;;;5110625;28;20035;-71
2021/12/02 04:30:27;;;;;;;10.93;2.22;;;3.70;99.90;;;;;;5111798;28;20148;-70
2021/12/02 04:32:53;;;;;;;6.72;2.03;;;3.80;99.90;;;;;;5093013;28;20031;-70
2021/12/02 04:35:19;;;;;;;5.35;1.50;;;3.80;99.90;;;;;;5110608;28;20078;-71
2021/12/02 04:37:45;;;;;;;11.43;2.08;;;3.80;99.90;;;;;;5110165;28;20020;-70
2021/12/02 04:40:15;;;;;;;6.85;1.80;;;3.70;99.90;;;;;;5110156;28;20020;-70
2021/12/02 04:42:42;;;;;;;5.07;1.90;;;3.70;99.90;;;;;;5109701;28;20369;-70
2021/12/02 04:45:08;;;;;;;7.10;2.03;;;3.60;99.90;;;;;;5111186;28;20038;-70
2021/12/02 04:47:34;;;;;;;9.73;1.85;;;3.60;99.90;;;;;;5109558;28;20035;-70
2021/12/02 04:50:00;;;;;;;3.03;1.33;;;3.60;99.90;;;;;;5109522;28;20024;-70
2021/12/02 04:52:25;;;;;;;5.00;1.77;;;3.60;99.90;;;;;;5109552;28;20023;-70
2021/12/02 04:54:51;;;;;;;7.43;2.20;;;3.60;99.90;;;;;;5092432;28;20032;-70
2021/12/02 04:57:17;;;;;;;6.13;1.60;;;3.60;99.90;;;;;;5111255;28;20023;-70
2021/12/02 04:59:42;;;;;;;6.68;2.60;;;3.50;99.90;;;;;;5111213;28;20024;-70
2021/12/02 05:02:08;;;;;;;9.63;2.80;;;3.50;99.90;;;;;;5092302;28;20023;-70
2021/12/02 05:04:33;;;;;;;8.68;2.45;;;3.40;99.90;;;;;;5092341;28;20069;-71
2021/12/02 05:06:59;;;;;;;6.07;2.40;;;3.50;99.90;;;;;;5109337;28;20035;-71
2021/12/02 05:09:25;;;;;;;7.88;2.50;;;3.50;99.90;;;;;;5111013;28;20020;-70
2021/12/02 05:11:50;;;;;;;11.43;3.20;;;3.40;99.90;;;;;;5110678;28;20095;-71
2021/12/02 05:14:16;;;;;;;7.88;3.28;;;3.40;99.90;;;;;;5110431;28;20082;-71
2021/12/02 05:16:42;;;;;;;13.95;4.10;;;3.30;99.90;;;;;;5110588;28;20024;-71
2021/12/02 05:19:07;;;;;;;9.55;4.15;;;3.10;99.90;;;;;;5110567;28;20047;-71
2021/12/02 05:21:33;;;;;;;9.32;3.47;;;3.10;99.90;;;;;;5092586;28;20024;-70
2021/12/02 05:23:58;;;;;;;7.25;3.92;;;3.00;99.90;;;;;;5108885;28;20027;-70
2021/12/02 05:26:25;;;;;;;9.85;4.20;;;3.00;99.90;;;;;;5082465;28;20488;-70
2021/12/02 05:28:53;;;;;;;11.63;4.28;;;3.00;99.90;;;;;;5096803;28;20107;-70
2021/12/02 05:31:19;;;;;;;8.32;4.35;;;2.90;99.90;;;;;;5096948;28;20107;-70
2021/12/02 05:33:45;;;;;;;10.40;4.95;;;2.90;99.90;;;;;;5095753;28;20021;-70
2021/12/02 05:36:11;;;;;;;9.35;4.07;;;2.90;99.90;;;;;;5096645;28;20434;-70
2021/12/02 05:38:37;;;;;;;9.45;4.57;;;2.80;99.90;;;;;;5095635;28;20020;-70
2021/12/02 05:41:03;;;;;;;11.98;4.72;;;2.80;99.90;;;;;;5095049;28;20057;-70
2021/12/02 05:43:30;;;;;;;13.23;4.90;;;2.80;99.90;;;;;;5078104;28;20020;-70
2021/12/02 05:45:56;;;;;;;16.35;5.20;;;2.80;99.90;;;;;;5094917;28;20024;-70
2021/12/02 05:48:21;;;;;;;13.63;5.25;;;2.80;99.90;;;;;;5096677;28;20031;-70
2021/12/02 05:50:47;;;;;;;13.75;6.45;;;2.80;99.90;;;;;;5096648;28;20437;-70
2021/12/02 05:53:13;;;;;;;17.50;5.75;;;2.80;99.90;;;;;;5095054;28;20469;-70
2021/12/02 05:55:39;;;;;;;11.27;6.22;;;2.90;99.90;;;;;;5096449;28;20024;-70
2021/12/02 05:58:07;;;;;;;17.70;7.05;;;3.00;99.90;;;;;;5077936;28;20110;-70
2021/12/02 06:00:33;;;;;;;13.45;6.97;;;3.00;99.90;;;;;;5095900;28;20020;-70
2021/12/02 06:02:59;;;;;;;13.02;7.65;;;3.10;99.90;;;;;;5077910;28;20468;-70
2021/12/02 06:05:25;;;;;;;17.90;8.10;;;3.10;99.90;;;;;;5094888;28;20043;-70
2021/12/02 06:07:52;;;;;;;17.77;7.80;;;3.20;99.90;;;;;;5094569;28;20020;-70
2021/12/02 06:10:19;;;;;;;17.67;8.65;;;3.20;99.90;;;;;;5094564;28;20051;-70
2021/12/02 06:12:45;;;;;;;19.02;8.65;;;3.20;99.90;;;;;;5077734;28;20024;-70
2021/12/02 06:15:11;;;;;;;18.25;9.30;;;3.20;99.90;;;;;;5095404;28;20046;-70
2021/12/02 06:17:37;;;;;;;14.15;8.68;;;3.30;99.90;;;;;;5096121;28;20020;-70
2021/12/02 06:20:06;;;;;;;21.00;9.40;;;3.30;99.90;;;;;;5095539;28;20020;-70
2021/12/02 06:22:32;;;;;;;15.25;8.45;;;3.30;99.90;;;;;;5094297;28;20020;-70
2021/12/02 06:25:16;;;;;;;15.60;8.13;;;3.30;99.90;;;;;;5078217;28;20032;-70
2021/12/02 06:27:45;;;;;;;15.07;8.27;;;3.30;99.90;;;;;;5094088;28;20020;-71
2021/12/02 06:30:13;;;;;;;14.63;7.70;;;3.40;99.90;;;;;;5094362;28;20036;-71
2021/12/02 06:32:38;;;;;;;14.40;8.25;;;3.40;99.90;;;;;;5095562;28;20060;-71
2021/12/02 06:35:05;;;;;;;13.35;7.95;;;3.40;99.90;;;;;;5077002;28;20067;-71
2021/12/02 06:37:30;;;;;;;16.27;7.88;;;3.40;99.90;;;;;;5093295;28;20032;-71
2021/12/02 06:39:56;;;;;;;16.33;8.13;;;3.40;99.90;;;;;;5094541;28;20020;-71
2021/12/02 06:42:21;;;;;;;18.33;7.68;;;3.40;99.90;;;;;;5077469;28;20103;-70
2021/12/02 06:44:47;;;;;;;11.65;6.88;;;3.40;99.90;;;;;;5095575;28;20047;-70
2021/12/02 06:47:13;;;;;;;18.15;7.30;;;3.40;99.90;;;;;;5077654;28;20472;-71
2021/12/02 06:49:39;;;;;;;16.00;6.63;;;3.40;99.90;;;;;;5094058;28;20503;-71
2021/12/02 06:52:10;;;;;;;15.55;7.45;;;3.40;99.90;;;;;;5094224;28;20028;-70
2021/12/02 06:54:36;;;;;;;11.23;6.47;;;3.40;99.90;;;;;;5094087;28;20105;-70
2021/12/02 06:57:02;;;;;;;9.95;6.15;;;3.40;99.90;;;;;;5076495;28;20392;-70
2021/12/02 06:59:28;;;;;;;16.38;7.00;;;3.40;99.90;;;;;;5093662;28;20020;-70
2021/12/02 07:01:53;;;;;;;13.20;5.95;;;3.40;99.90;;;;;;5095164;28;20042;-70
2021/12/02 07:04:19;;;;;;;13.18;6.20;;;3.40;99.90;;;;;;5093958;28;20028;-70
2021/12/02 07:06:44;;;;;;;11.77;6.13;;;3.50;99.90;;;;;;5077179;28;20480;-70
2021/12/02 07:09:10;;;;;;;11.52;6.53;;;3.40;99.90;;;;;;5077114;28;20032;-70
2021/12/02 07:11:36;;;;;;;9.98;6.30;;;3.50;99.90;;;;;;5094739;28;20035;-70
2021/12/02 07:14:05;;;;;;;11.82;6.00;;;3.40;99.90;;;;;;5093193;28;20036;-71
2021/12/02 07:16:32;;;;;;;10.43;5.97;;;3.50;99.90;;;;;;5076685;28;20019;-70
2021/12/02 07:19:03;;;;;;;11.52;5.97;;;3.40;99.90;;;;;;5092981;28;20114;-70
2021/12/02 07:21:28;;;;;;;10.90;6.13;;;3.50;99.90;;;;;;5093323;28;20107;-70
2021/12/02 07:23:54;;;;;;;11.73;6.60;;;3.50;99.90;;;;;;5093385;28;20063;-70
2021/12/02 07:26:20;;;;;;;11.57;5.85;;;3.50;99.90;;;;;;5094757;28;20051;-70
2021/12/02 07:28:46;;;;;;;10.15;6.00;;;3.50;99.90;;;;;;5093239;28;20032;-70
2021/12/02 07:31:13;;;;;;;15.05;5.15;;;3.50;99.90;;;;;;5094720;28;20045;-70
2021/12/02 07:33:42;;;;;;;8.93;5.07;;;3.50;99.90;;;;;;5093163;28;20027;-70
2021/12/02 07:36:08;;;;;;;12.15;6.25;;;3.50;99.90;;;;;;5094321;28;20054;-70
2021/12/02 07:38:38;;;;;;;10.75;5.65;;;3.50;99.90;;;;;;5071575;28;20036;-70
2021/12/02 07:41:05;;;;;;;12.52;5.80;;;3.50;99.90;;;;;;5085995;28;20033;-70
2021/12/02 07:43:33;;;;;;;10.68;5.95;;;3.60;99.90;;;;;;5082959;28;20381;-70
2021/12/02 07:46:00;;;;;;;11.52;5.45;;;3.60;99.90;;;;;;5089792;28;20027;-70
2021/12/02 07:48:27;;;;;;;13.02;5.68;;;3.60;99.90;;;;;;5092706;28;20380;-70
2021/12/02 07:50:59;;;;;;;11.57;5.72;;;3.60;99.90;;;;;;5091900;28;20465;-70
2021/12/02 07:53:26;;;;;;;9.88;6.03;;;3.60;99.90;;;;;;5092638;28;20016;-70
2021/12/02 07:55:54;;;;;;;12.45;6.03;;;3.60;99.90;;;;;;5071515;28;20065;-70
2021/12/02 07:58:22;;;;;;;12.10;4.80;;;3.60;99.90;;;;;;5073905;28;20069;-70
2021/12/02 08:00:49;;;;;;;14.25;5.35;;;3.60;99.90;;;;;;5089287;28;20035;-70
2021/12/02 08:03:15;;;;;;;8.20;5.20;;;3.60;99.90;;;;;;5089522;28;20055;-70
2021/12/02 08:05:42;;;;;;;10.55;5.50;;;3.60;99.90;;;;;;5081980;28;20031;-70
2021/12/02 08:08:08;;;;;;;12.93;5.22;;;3.60;99.90;;;;;;5076122;28;20035;-70
2021/12/02 08:10:34;;;;;;;14.00;6.53;;;3.60;99.90;;;;;;5061389;28;20172;-71
2021/12/02 08:13:01;;;;;;;10.52;5.13;;;3.70;99.90;;;;;;5085854;28;20152;-70
2021/12/02 08:15:28;;;;;;;8.10;4.68;;;3.80;99.90;;;;;;5075238;28;20087;-70
2021/12/02 08:17:55;;;;;;;9.00;5.15;;;3.80;99.90;;;;;;5091215;28;20073;-70
2021/12/02 08:20:24;;;;;;;6.85;3.88;;;3.90;99.90;;;;;;5070781;28;20020;-67
2021/12/02 08:22:50;;;;;;;10.60;4.65;;;4.00;99.90;;;;;;5092452;28;20023;-67
2021/12/02 08:25:16;;;;;;;11.05;4.13;;;4.00;99.90;;;;;;5093208;28;20028;-67
2021/12/02 08:27:42;;;;;;;5.20;3.47;;;4.00;99.90;;;;;;5092407;28;20056;-67
2021/12/02 08:30:11;;;;;;;7.95;3.97;;;4.10;99.90;;;;;;5072137;28;20033;-67
2021/12/02 08:32:39;;;;;;;5.40;3.45;;;4.00;99.90;;;;;;5089101;28;20106;-67
2021/12/02 08:35:05;;;;;;;4.70;3.35;;;4.00;99.90;;;;;;5093166;28;20020;-67
2021/12/02 08:37:33;;;;;;;6.85;3.45;;;4.00;99.90;;;;;;5092195;28;20024;-67
2021/12/02 08:40:00;;;;;;;5.85;3.47;;;4.00;99.90;;;;;;5057991;28;20024;-66
2021/12/02 08:42:28;;;;;;;4.85;3.47;;;3.80;99.90;;;;;;5082622;28;20025;-70
2021/12/02 08:44:54;;;;;;;4.38;2.70;;;3.80;99.90;;;;;;5057231;28;20078;-70
2021/12/02 08:47:22;;;;;;;4.07;3.50;;;3.90;99.90;;;;;;5073981;28;20021;-70
2021/12/02 08:49:53;;;;;;;3.80;2.78;;;3.90;99.90;;;;;;5075725;28;20036;-70
2021/12/02 08:52:20;;;;;;;3.90;2.60;;;3.90;99.90;;;;;;5088738;28;20043;-69
2021/12/02 08:54:47;;;;;;;4.10;2.50;;;4.00;99.90;;;;;;5091636;28;20034;-70
2021/12/02 08:57:12;;;;;;;3.85;2.53;;;4.20;99.90;;;;;;5091451;28;20032;-72
2021/12/02 08:59:40;;;;;;;3.95;2.20;;;4.70;99.90;;;;;;5092657;28;20039;-71
2021/12/02 09:02:05;;;;;;;5.55;3.10;;;4.50;99.90;;;;;;5095490;28;20024;-71
2021/12/02 09:04:31;;;;;;;4.82;2.33;;;4.40;99.90;;;;;;5096767;28;20487;-71
2021/12/02 09:06:56;;;;;;;3.10;2.40;;;4.30;99.90;;;;;;5094964;28;20036;-71
2021/12/02 09:09:25;;;;;;;3.47;2.08;;;4.00;99.90;;;;;;5096795;28;20027;-72
2021/12/02 09:11:51;;;;;;;2.28;1.88;;;4.20;99.90;;;;;;5094522;28;20039;-69
2021/12/02 09:14:17;;;;;;;2.00;1.80;;;4.30;99.90;;;;;;5094005;28;20052;-71
2021/12/02 09:16:42;;;;;;;1.80;1.50;;;4.40;99.90;;;;;;5074797;28;20458;-70
2021/12/02 09:19:08;;;;;;;3.50;1.77;;;4.30;99.90;;;;;;5094433;28;20035;-71
2021/12/02 09:21:33;;;;;;;1.95;1.75;;;4.40;99.90;;;;;;5093928;28;20346;-72
2021/12/02 09:23:59;;;;;;;24.48;11.98;;;4.60;99.90;;;;;;5095511;28;20024;-73
2021/12/02 09:26:25;;;;;;;3.13;2.03;;;5.10;99.90;;;;;;5095156;28;20028;-72
2021/12/02 09:28:52;;;;;;;10.98;3.75;;;6.10;99.90;;;;;;5095674;28;20072;-71
2021/12/02 09:31:20;;;;;;;12.35;7.35;;;6.40;99.90;;;;;;5088590;28;20038;-72
2021/12/02 09:33:46;;;;;;;16.70;13.27;;;5.80;99.90;;;;;;5088500;28;20101;-71
2021/12/02 09:36:12;;;;;;;12.27;6.57;;;5.40;99.90;;;;;;5082982;28;20025;-71
2021/12/02 09:38:38;;;;;;;2.80;2.13;;;5.60;99.90;;;;;;5074467;28;20043;-71
2021/12/02 09:41:04;;;;;;;5.75;2.10;;;6.30;99.90;;;;;;5087707;28;20066;-71
2021/12/02 09:43:30;;;;;;;4.13;2.15;;;6.40;99.90;;;;;;5091680;28;20061;-71
2021/12/02 09:45:55;;;;;;;2.75;2.25;;;6.70;99.90;;;;;;5094750;28;20027;-71
2021/12/02 09:48:21;;;;;;;3.88;2.40;;;7.00;99.90;;;;;;5081162;28;20021;-71
2021/12/02 09:50:52;;;;;;;2.30;2.10;;;6.90;99.90;;;;;;5076486;28;20067;-71
2021/12/02 09:53:22;;;;;;;2.47;2.28;;;6.80;99.90;;;;;;5093251;28;20024;-71
2021/12/02 09:55:58;;;;;;;2.60;2.00;;;6.60;99.90;;;;;;5080153;28;20020;-72
2021/12/02 09:58:26;;;;;;;3.95;2.25;;;6.40;99.90;;;;;;5092125;28;20070;-72
2021/12/02 10:01:10;;;;;;;2.60;2.38;;;5.90;99.90;;;;;;5074410;28;20416;-72
2021/12/02 10:03:39;;;;;;;2.88;2.33;;;5.60;99.90;;;;;;5092184;28;20051;-72
2021/12/02 10:06:14;;;;;;;3.83;2.38;;;5.60;99.90;;;;;;5087700;28;20031;-72
2021/12/02 10:08:51;;;;;;;2.97;2.65;;;5.20;99.90;;;;;;5069146;28;20029;-71
2021/12/02 10:11:39;;;;;;;3.10;2.67;;;4.80;99.90;;;;;;5108201;28;20063;-72
2021/12/02 10:14:13;;;;;;;4.22;2.92;;;4.70;99.90;;;;;;5083192;28;20045;-72
2021/12/02 10:16:42;;;;;;;4.35;2.95;;;4.70;99.90;;;;;;5087219;28;20085;-72
2021/12/02 10:19:11;;;;;;;3.35;2.40;;;4.70;99.90;;;;;;5090811;28;20527;-72
2021/12/02 10:21:44;;;;;;;6.35;3.88;;;4.60;99.90;;;;;;5094541;28;20028;-72
2021/12/02 10:24:11;;;;;;;;;;;4.40;99.90;;;;;;5094978;28;20473;-72
2021/12/02 10:26:51;;;;;;;3.78;3.05;;;4.20;99.90;;;;;;5095022;28;20057;-72
2021/12/02 10:29:21;;;;;;;21.30;8.02;;;3.80;99.90;;;;;;5084427;28;20153;-71
2021/12/02 10:32:03;;;;;;;8.13;4.60;;;3.70;99.90;;;;;;5093166;28;20028;-71
2021/12/02 10:34:29;;;;;;;4.70;3.10;;;3.60;99.90;;;;;;5093802;28;20036;-71
2021/12/02 10:36:58;;;;;;;3.35;2.92;;;3.50;99.90;;;;;;5083001;28;20120;-71
2021/12/02 10:39:25;;;;;;;6.72;3.38;;;3.50;99.90;;;;;;5080817;28;20021;-72
2021/12/02 10:42:04;;;;;;;9.00;5.22;;;3.50;99.90;;;;;;5088976;28;20052;-72
2021/12/02 10:44:34;;;;;;;10.32;4.72;;;3.50;99.90;;;;;;5057629;28;20483;-71
2021/12/02 10:47:07;;;;;;;10.20;6.32;;;3.50;99.90;;;;;;5087242;28;20077;-72
2021/12/02 10:49:35;;;;;;;;;;;3.60;99.90;;;;;;5073550;28;20056;-72
2021/12/02 10:52:03;;;;;;;8.02;4.38;;;3.60;99.90;;;;;;5088993;28;19907;-71
2021/12/02 10:54:32;;;;;;;12.57;4.85;;;3.50;99.90;;;;;;5094962;28;20110;-71
2021/12/02 10:57:07;;;;;;;15.02;7.45;;;3.50;99.90;;;;;;5089325;28;20024;-72
2021/12/02 10:59:55;;;;;;;9.32;5.13;;;3.50;99.90;;;;;;5081408;28;20025;-73
2021/12/02 11:02:35;;;;;;;9.13;4.95;;;3.60;99.90;;;;;;5092052;28;20035;-73
2021/12/02 11:05:23;;;;;;;6.72;4.50;;;3.60;99.90;;;;;;5091961;28;20107;-73
2021/12/02 11:10:46;;;;;;;7.50;4.30;;;3.60;99.90;;;;;;5071069;28;20399;-72
2021/12/02 11:13:18;;;;;;;8.75;4.85;;;3.60;99.90;;;;;;5053243;28;20100;-72
2021/12/02 11:15:44;;;;;;;11.18;4.80;;;3.60;99.90;;;;;;5049774;28;20700;-72
2021/12/02 11:18:12;;;;;;;8.18;4.70;;;3.70;99.90;;;;;;5052704;28;20059;-72
2021/12/02 11:20:59;;;;;;;8.35;4.38;;;3.80;99.90;;;;;;5049185;28;20047;-72
2021/12/02 11:23:29;;;;;;;8.13;4.72;;;3.80;99.90;;;;;;5040760;28;20025;-71
2021/12/02 11:26:01;;;;;;;9.65;4.75;;;3.80;99.90;;;;;;5049951;28;20486;-71
2021/12/02 11:28:30;;;;;;;7.90;4.57;;;3.70;99.90;;;;;;5050838;28;20366;-70
2021/12/02 11:30:58;;;;;;;9.10;5.57;;;3.70;99.90;;;;;;5050437;28;20032;-70
2021/12/02 11:33:35;;;;;;;8.50;5.35;;;3.70;99.90;;;;;;5049025;28;20021;-71
2021/12/02 11:36:01;;;;;;;8.52;5.43;;;3.70;99.90;;;;;;5050550;28;20039;-70
2021/12/02 11:38:28;;;;;;;9.30;5.90;;;3.70;99.90;;;;;;5057719;28;20021;-70
2021/12/02 11:40:57;;;;;;;12.88;6.00;;;3.70;99.90;;;;;;5050409;28;20098;-71
2021/12/02 11:43:26;;;;;;;7.47;4.80;;;3.70;99.90;;;;;;5064449;28;20036;-71
2021/12/02 11:45:52;;;;;;;8.23;5.07;;;3.70;99.90;;;;;;5048875;28;20014;-70
2021/12/02 11:48:24;;;;;;;11.45;5.03;;;3.80;99.90;;;;;;5049023;28;20052;-70
2021/12/02 11:50:53;;;;;;;7.32;4.30;;;3.80;99.90;;;;;;5048236;28;20032;-71
2021/12/02 11:53:22;;;;;;;6.38;4.70;;;3.90;99.90;;;;;;5056169;28;20378;-71
2021/12/02 11:55:54;;;;;;;7.80;3.97;;;3.90;99.90;;;;;;5048366;28;20500;-72
2021/12/02 11:58:19;;;;;;;9.65;4.35;;;3.90;99.90;;;;;;5050858;28;20029;-66
2021/12/02 12:00:47;;;;;;;6.63;4.20;;;3.80;99.90;;;;;;5071520;28;20039;-66
2021/12/02 12:03:20;;;;;;;7.65;4.57;;;3.80;99.90;;;;;;5048013;28;20049;-65
2021/12/02 12:05:54;;;;;;;5.60;4.25;;;3.70;99.90;;;;;;5048314;28;20056;-65
2021/12/02 12:08:40;;;;;;;6.88;3.75;;;3.70;99.90;;;;;;5031260;28;20036;-67
2021/12/02 12:11:23;;;;;;;6.43;3.47;;;3.70;99.90;;;;;;5048040;28;20071;-65
2021/12/02 12:14:06;;;;;;;6.45;3.90;;;3.70;99.90;;;;;;5063972;28;20028;-65
2021/12/02 12:16:42;;;;;;;6.55;3.65;;;3.70;99.90;;;;;;5047848;28;20108;-66
2021/12/02 12:19:28;;;;;;;5.55;3.50;;;3.70;99.90;;;;;;5044648;28;20040;-66
2021/12/02 12:21:56;;;;;;;5.35;3.90;;;3.70;99.90;;;;;;5051237;28;20034;-66
2021/12/02 12:25:00;;;;;;;5.22;3.38;;;3.80;99.90;;;;;;5036530;28;20027;-65
2021/12/02 12:27:28;;;;;;;6.93;3.72;;;3.80;99.90;;;;;;5035814;28;20033;-66
2021/12/02 12:30:23;;;;;;;7.35;3.10;;;3.90;99.90;;;;;;5034810;28;20034;-73
2021/12/02 12:33:12;;;;;;;3.90;3.15;;;3.90;99.90;;;;;;5036125;28;20021;-73
2021/12/02 12:36:05;;;;;;;5.35;3.17;;;3.90;99.90;;;;;;5021744;28;20022;-73
2021/12/02 12:38:30;;;;;;;7.68;3.00;;;3.90;99.90;;;;;;5034418;28;20029;-73
2021/12/02 12:41:01;;;;;;;5.93;3.20;;;3.80;99.90;;;;;;5034152;28;20029;-74
2021/12/02 12:43:31;;;;;;;6.82;3.38;;;3.80;99.90;;;;;;5034099;28;20026;-73
2021/12/02 12:46:07;;;;;;;7.03;4.47;;;3.70;99.90;;;;;;5017835;28;20018;-73
2021/12/02 12:48:33;;;;;;;8.02;5.05;;;3.70;99.90;;;;;;5044426;28;20036;-73
2021/12/02 12:51:17;;;;;;;9.07;5.00;;;3.60;99.90;;;;;;5035115;28;20048;-73
2021/12/02 12:53:46;;;;;;;4.95;3.30;;;3.60;99.90;;;;;;5022320;28;20026;-73
2021/12/02 12:56:14;;;;;;;5.20;3.30;;;3.50;99.90;;;;;;5020706;28;20107;-73
2021/12/02 12:59:01;;;;;;;6.20;3.67;;;3.50;99.90;;;;;;5035592;28;20095;-73
2021/12/02 13:01:28;;;;;;;8.40;3.78;;;3.40;99.90;;;;;;5037356;28;20025;-73
2021/12/02 13:04:15;;;;;;;5.18;3.47;;;3.30;99.90;;;;;;5042254;28;20199;-73
2021/12/02 13:07:05;;;;;;;6.57;3.50;;;3.30;99.90;;;;;;5046013;28;20066;-73
2021/12/02 13:09:37;;;;;;;8.10;3.97;;;3.30;99.90;;;;;;5055145;28;20052;-73
2021/12/02 13:12:04;;;;;;;5.55;4.20;;;3.30;99.90;;;;;;5051041;28;20496;-72
2021/12/02 13:14:30;;;;;;;7.22;4.38;;;3.40;99.90;;;;;;5037727;28;20498;-73